Time;durP1;ratioP1;P1;durP2;ratioP2;P2;SDS_P1;SDS_P2;PMS_P1;PMS_P2;Temp;Humidity;BMP_temperature;BMP_pressure;BME280_temperature;BME280_humidity;BME280_pressure;Samples;Min_cycle;Max_cycle;Signal;HPM_P1;HPM_P2
2021/07/16 00:02:11;;;;;;;0.47;0.20;;;;;;;;;;5043780;28;20025;-78
2021/07/16 00:04:37;;;;;;;0.52;0.52;;;;;;;;;;5044432;28;20063;-78
2021/07/16 00:07:03;;;;;;;0.30;0.30;;;;;;;;;;5044189;28;20029;-78
2021/07/16 00:09:30;;;;;;;1.30;0.30;;;;;;;;;;5027262;28;20053;-78
2021/07/16 00:11:56;;;;;;;0.45;0.30;;;;;;;;;;5023731;28;20022;-78
2021/07/16 00:14:22;;;;;;;0.50;0.50;;;;;;;;;;5024335;28;20041;-78
2021/07/16 00:16:48;;;;;;;0.25;0.25;;;;;;;;;;5007571;28;20042;-78
2021/07/16 00:19:16;;;;;;;1.55;0.52;;;;;;;;;;5040719;28;20029;-78
2021/07/16 00:21:42;;;;;;;2.08;0.40;;;;;;;;;;5050358;28;20056;-78
2021/07/16 00:24:08;;;;;;;1.85;0.65;;;;;;;;;;5055365;28;20021;-78
2021/07/16 00:26:34;;;;;;;0.30;0.30;;;;;;;;;;5068883;28;20112;-77
2021/07/16 00:29:00;;;;;;;0.38;0.38;;;;;;;;;;5051306;28;20041;-78
2021/07/16 00:31:26;;;;;;;0.40;0.40;;;;;;;;;;5045967;28;20032;-80
2021/07/16 00:33:52;;;;;;;0.40;0.40;;;;;;;;;;5048517;28;20037;-78
2021/07/16 00:36:19;;;;;;;0.28;0.22;;;;;;;;;;5026976;28;20032;-78
2021/07/16 00:38:45;;;;;;;1.38;0.50;;;;;;;;;;5036801;28;20034;-77
2021/07/16 00:41:11;;;;;;;1.20;0.47;;;;;;;;;;5023743;28;20033;-78
2021/07/16 00:43:37;;;;;;;0.20;0.20;;;;;;;;;;5023773;28;20037;-77
2021/07/16 00:46:03;;;;;;;0.47;0.35;;;;;;;;;;5023519;28;20053;-78
2021/07/16 00:48:29;;;;;;;0.55;0.25;;;;;;;;;;5026745;28;20068;-79
2021/07/16 00:50:55;;;;;;;0.85;0.30;;;;;;;;;;5045548;28;20029;-79
2021/07/16 00:53:22;;;;;;;0.30;0.30;;;;;;;;;;5057095;28;20025;-80
2021/07/16 00:55:48;;;;;;;0.32;0.32;;;;;;;;;;5063980;28;20025;-79
2021/07/16 00:58:16;;;;;;;0.20;0.20;;;;;;;;;;5061869;28;20031;-78
2021/07/16 01:00:42;;;;;;;0.40;0.40;;;;;;;;;;5041781;28;20089;-78
2021/07/16 01:03:08;;;;;;;0.35;0.30;;;;;;;;;;5042672;28;20032;-79
2021/07/16 01:05:35;;;;;;;0.30;0.30;;;;;;;;;;5043286;28;20089;-78
2021/07/16 01:08:01;;;;;;;0.30;0.30;;;;;;;;;;5044485;28;20025;-79
2021/07/16 01:10:27;;;;;;;0.20;0.20;;;;;;;;;;5011384;28;20038;-78
2021/07/16 01:12:54;;;;;;;0.60;0.60;;;;;;;;;;5021093;28;20025;-79
2021/07/16 01:15:21;;;;;;;2.83;0.60;;;;;;;;;;5023414;28;20030;-78
2021/07/16 01:17:47;;;;;;;0.40;0.40;;;;;;;;;;5024034;28;20024;-79
2021/07/16 01:20:15;;;;;;;3.92;0.38;;;;;;;;;;5033019;28;20025;-79
2021/07/16 01:22:42;;;;;;;0.30;0.30;;;;;;;;;;5033424;28;20029;-79
2021/07/16 01:25:10;;;;;;;1.50;0.40;;;;;;;;;;5027565;28;20018;-79
2021/07/16 01:27:36;;;;;;;0.30;0.30;;;;;;;;;;5046022;28;20398;-78
2021/07/16 01:30:04;;;;;;;0.40;0.40;;;;;;;;;;5024939;28;20037;-79
2021/07/16 01:32:30;;;;;;;1.33;0.60;;;;;;;;;;5024669;28;20034;-78
2021/07/16 01:34:56;;;;;;;0.95;0.50;;;;;;;;;;5027419;28;20053;-79
2021/07/16 01:37:23;;;;;;;0.50;0.50;;;;;;;;;;5030383;28;20026;-78
2021/07/16 01:39:49;;;;;;;0.55;0.50;;;;;;;;;;5033252;28;20101;-78
2021/07/16 01:42:15;;;;;;;1.60;0.63;;;;;;;;;;5056609;28;20393;-77
2021/07/16 01:44:43;;;;;;;1.85;0.40;;;;;;;;;;5058307;28;20033;-79
2021/07/16 01:47:10;;;;;;;0.55;0.55;;;;;;;;;;5048433;28;20104;-79
2021/07/16 01:49:36;;;;;;;0.73;0.52;;;;;;;;;;5047251;28;20033;-79
2021/07/16 01:52:02;;;;;;;1.45;0.75;;;;;;;;;;5055616;28;20047;-79
2021/07/16 01:54:28;;;;;;;0.52;0.52;;;;;;;;;;5059847;28;20021;-78
2021/07/16 01:56:54;;;;;;;0.80;0.50;;;;;;;;;;5066433;28;20083;-78
2021/07/16 01:59:20;;;;;;;2.00;0.20;;;;;;;;;;5065134;28;20021;-78
2021/07/16 02:01:46;;;;;;;0.30;0.30;;;;;;;;;;5051859;28;20036;-79
2021/07/16 02:04:12;;;;;;;0.38;0.38;;;;;;;;;;5043003;28;20104;-80
2021/07/16 02:06:39;;;;;;;0.40;0.40;;;;;;;;;;5041685;28;20026;-78
2021/07/16 02:09:06;;;;;;;0.40;0.30;;;;;;;;;;5041186;28;20033;-80
2021/07/16 02:11:32;;;;;;;2.40;0.35;;;;;;;;;;5035355;28;20026;-79
2021/07/16 02:13:58;;;;;;;1.02;0.43;;;;;;;;;;5020378;28;20026;-77
2021/07/16 02:16:25;;;;;;;0.88;0.45;;;;;;;;;;5001462;28;20022;-77
2021/07/16 02:18:51;;;;;;;0.52;0.40;;;;;;;;;;5019610;28;20045;-79
2021/07/16 02:21:17;;;;;;;0.85;0.40;;;;;;;;;;5028383;28;20024;-79
2021/07/16 02:23:44;;;;;;;0.82;0.40;;;;;;;;;;5046811;28;20024;-78
2021/07/16 02:26:10;;;;;;;0.55;0.55;;;;;;;;;;5072187;28;20021;-79
2021/07/16 02:28:37;;;;;;;0.50;0.30;;;;;;;;;;5065198;28;20041;-78
2021/07/16 02:31:04;;;;;;;0.30;0.30;;;;;;;;;;5065363;28;20447;-78
2021/07/16 02:33:30;;;;;;;0.85;0.20;;;;;;;;;;5048438;28;20036;-78
2021/07/16 02:35:56;;;;;;;0.55;0.55;;;;;;;;;;5027340;28;20033;-79
2021/07/16 02:38:22;;;;;;;0.65;0.30;;;;;;;;;;5045551;28;20030;-78
2021/07/16 02:40:49;;;;;;;0.32;0.30;;;;;;;;;;5047163;28;20029;-78
2021/07/16 02:43:15;;;;;;;2.38;0.20;;;;;;;;;;5046522;28;20501;-79
2021/07/16 02:45:42;;;;;;;0.22;0.20;;;;;;;;;;5047589;28;20081;-79
2021/07/16 02:48:08;;;;;;;0.20;0.20;;;;;;;;;;5046529;28;20025;-79
2021/07/16 02:50:36;;;;;;;0.30;0.20;;;;;;;;;;5047780;28;20036;-79
2021/07/16 02:53:02;;;;;;;0.40;0.30;;;;;;;;;;5048225;28;20117;-78
2021/07/16 02:55:28;;;;;;;0.30;0.30;;;;;;;;;;5064097;28;20021;-79
2021/07/16 02:57:54;;;;;;;1.00;0.30;;;;;;;;;;5065641;28;20035;-79
2021/07/16 03:00:21;;;;;;;0.30;0.30;;;;;;;;;;5065960;28;20060;-79
2021/07/16 03:02:48;;;;;;;0.25;0.25;;;;;;;;;;5062848;28;20050;-79
2021/07/16 03:05:18;;;;;;;0.50;0.40;;;;;;;;;;5045755;28;20036;-79
2021/07/16 03:07:45;;;;;;;0.22;0.22;;;;;;;;;;5045919;28;20029;-79
2021/07/16 03:10:13;;;;;;;0.30;0.30;;;;;;;;;;5046002;28;20050;-80
2021/07/16 03:12:39;;;;;;;0.43;0.38;;;;;;;;;;5028883;28;20136;-79
2021/07/16 03:15:10;;;;;;;0.47;0.25;;;;;;;;;;5027979;28;20099;-79
2021/07/16 03:17:39;;;;;;;0.40;0.30;;;;;;;;;;5024402;28;20394;-78
2021/07/16 03:20:06;;;;;;;1.15;0.57;;;;;;;;;;5024797;28;20148;-79
2021/07/16 03:22:32;;;;;;;1.08;0.60;;;;;;;;;;5033596;28;20018;-79
2021/07/16 03:24:58;;;;;;;0.20;0.20;;;;;;;;;;5046763;28;20026;-79
2021/07/16 03:27:24;;;;;;;0.28;0.28;;;;;;;;;;5043156;28;20030;-79
2021/07/16 03:29:50;;;;;;;0.77;0.20;;;;;;;;;;5027339;28;20051;-78
2021/07/16 03:32:16;;;;;;;0.35;0.30;;;;;;;;;;5044778;28;20033;-78
2021/07/16 03:34:42;;;;;;;0.80;0.30;;;;;;;;;;5033804;28;20026;-78
2021/07/16 03:37:08;;;;;;;0.30;0.30;;;;;;;;;;5024762;28;20033;-79
2021/07/16 03:39:34;;;;;;;3.72;0.43;;;;;;;;;;5024419;28;20022;-78
2021/07/16 03:42:00;;;;;;;0.50;0.50;;;;;;;;;;5026198;28;20022;-79
2021/07/16 03:44:26;;;;;;;0.25;0.25;;;;;;;;;;5025483;28;20045;-79
2021/07/16 03:46:52;;;;;;;0.50;0.40;;;;;;;;;;5024692;28;20018;-79
2021/07/16 03:49:18;;;;;;;0.30;0.30;;;;;;;;;;5006803;28;20117;-76
2021/07/16 03:51:44;;;;;;;0.30;0.30;;;;;;;;;;5041113;28;20017;-79
2021/07/16 03:54:10;;;;;;;0.95;0.40;;;;;;;;;;5055798;28;20072;-78
2021/07/16 03:56:36;;;;;;;1.08;0.40;;;;;;;;;;5043933;28;20025;-78
2021/07/16 03:59:02;;;;;;;0.38;0.38;;;;;;;;;;5043544;28;20028;-78
2021/07/16 04:01:29;;;;;;;0.20;0.20;;;;;;;;;;5025892;28;20025;-77
2021/07/16 04:03:55;;;;;;;0.30;0.30;;;;;;;;;;5044510;28;20025;-78
2021/07/16 04:06:21;;;;;;;0.32;0.32;;;;;;;;;;5012715;28;20117;-79
2021/07/16 04:08:47;;;;;;;0.80;0.45;;;;;;;;;;5044958;23;20136;-82
2021/07/16 04:11:13;;;;;;;1.35;0.35;;;;;;;;;;5005795;28;20030;-81
2021/07/16 04:13:39;;;;;;;0.25;0.25;;;;;;;;;;5005503;28;20113;-82
2021/07/16 04:16:05;;;;;;;0.73;0.32;;;;;;;;;;5018247;28;20021;-81
2021/07/16 04:18:31;;;;;;;1.23;0.10;;;;;;;;;;5002865;28;20037;-83
2021/07/16 04:20:57;;;;;;;0.30;0.30;;;;;;;;;;5020471;28;20030;-83
2021/07/16 04:23:23;;;;;;;0.75;0.32;;;;;;;;;;5019753;28;20030;-80
2021/07/16 04:25:49;;;;;;;0.45;0.20;;;;;;;;;;5019483;28;20084;-81
2021/07/16 04:28:16;;;;;;;0.20;0.20;;;;;;;;;;5002204;28;20030;-80
2021/07/16 04:30:42;;;;;;;0.32;0.32;;;;;;;;;;5021876;28;20026;-80
2021/07/16 04:33:09;;;;;;;0.20;0.20;;;;;;;;;;5024289;28;20354;-80
2021/07/16 04:35:35;;;;;;;0.73;0.60;;;;;;;;;;5015011;28;20021;-80
2021/07/16 04:38:01;;;;;;;0.30;0.30;;;;;;;;;;5006021;28;20030;-80
2021/07/16 04:40:27;;;;;;;1.10;0.40;;;;;;;;;;5018057;28;20034;-82
2021/07/16 04:42:55;;;;;;;0.57;0.40;;;;;;;;;;4999977;28;20113;-80
2021/07/16 04:45:21;;;;;;;0.70;0.70;;;;;;;;;;5004014;28;20076;-80
2021/07/16 04:47:48;;;;;;;0.63;0.50;;;;;;;;;;5015339;28;20018;-79
2021/07/16 04:50:14;;;;;;;1.17;0.60;;;;;;;;;;5032325;28;20018;-79
2021/07/16 04:52:42;;;;;;;1.75;0.50;;;;;;;;;;5022172;28;20029;-82
2021/07/16 04:55:09;;;;;;;0.43;0.32;;;;;;;;;;5014926;28;20037;-81
2021/07/16 04:57:35;;;;;;;0.63;0.63;;;;;;;;;;5033461;28;20022;-80
2021/07/16 05:00:01;;;;;;;0.32;0.32;;;;;;;;;;5029055;28;20030;-83
2021/07/16 05:02:27;;;;;;;0.40;0.30;;;;;;;;;;5026011;28;20029;-81
2021/07/16 05:04:53;;;;;;;0.93;0.40;;;;;;;;;;5007918;28;20034;-81
2021/07/16 05:07:21;;;;;;;1.58;0.38;;;;;;;;;;5026536;28;20054;-82
2021/07/16 05:09:48;;;;;;;0.50;0.30;;;;;;;;;;5023120;28;20025;-81
2021/07/16 05:12:14;;;;;;;0.65;0.50;;;;;;;;;;5024251;28;20030;-81
2021/07/16 05:14:40;;;;;;;0.38;0.38;;;;;;;;;;5023814;28;20041;-82
2021/07/16 05:17:06;;;;;;;0.80;0.40;;;;;;;;;;5006613;28;20018;-82
2021/07/16 05:19:32;;;;;;;2.10;0.43;;;;;;;;;;5023287;28;20113;-82
2021/07/16 05:21:58;;;;;;;0.30;0.30;;;;;;;;;;5031853;28;20056;-82
2021/07/16 05:24:24;;;;;;;0.70;0.40;;;;;;;;;;5034307;28;20040;-82
2021/07/16 05:26:50;;;;;;;0.28;0.28;;;;;;;;;;5033142;28;20080;-81
2021/07/16 05:29:16;;;;;;;0.45;0.38;;;;;;;;;;5021866;28;20037;-82
2021/07/16 05:31:43;;;;;;;0.77;0.50;;;;;;;;;;5023290;28;20518;-83
2021/07/16 05:34:09;;;;;;;0.45;0.40;;;;;;;;;;5005546;28;20544;-81
2021/07/16 05:36:35;;;;;;;0.40;0.40;;;;;;;;;;5005359;28;20022;-80
2021/07/16 05:39:05;;;;;;;0.80;0.60;;;;;;;;;;5024830;28;20032;-81
2021/07/16 05:41:31;;;;;;;1.58;0.75;;;;;;;;;;5023341;28;20288;-80
2021/07/16 05:43:57;;;;;;;0.60;0.60;;;;;;;;;;5023620;28;20129;-81
2021/07/16 05:46:23;;;;;;;2.25;0.80;;;;;;;;;;5006126;28;20067;-82
2021/07/16 05:48:49;;;;;;;1.38;0.80;;;;;;;;;;5022165;28;20026;-81
2021/07/16 05:51:16;;;;;;;0.88;0.80;;;;;;;;;;5006727;28;20033;-82
2021/07/16 05:53:45;;;;;;;0.60;0.60;;;;;;;;;;5018243;28;20034;-81
2021/07/16 05:56:14;;;;;;;0.75;0.75;;;;;;;;;;5015070;28;20058;-82
2021/07/16 05:58:40;;;;;;;0.80;0.80;;;;;;;;;;5028755;28;20049;-82
2021/07/16 06:01:15;;;;;;;0.65;0.50;;;;;;;;;;5016397;28;20080;-83
2021/07/16 06:03:43;;;;;;;1.02;0.90;;;;;;;;;;5003340;28;20030;-81
2021/07/16 06:06:09;;;;;;;1.15;0.90;;;;;;;;;;5006952;28;20041;-81
2021/07/16 06:08:35;;;;;;;3.05;0.73;;;;;;;;;;5023618;28;20044;-82
2021/07/16 06:11:01;;;;;;;0.88;0.88;;;;;;;;;;5022007;28;20030;-82
2021/07/16 06:13:27;;;;;;;2.05;1.33;;;;;;;;;;5023366;28;20093;-82
2021/07/16 06:15:53;;;;;;;0.80;0.80;;;;;;;;;;5022556;28;20026;-81
2021/07/16 06:18:19;;;;;;;0.70;0.70;;;;;;;;;;5004400;28;20022;-80
2021/07/16 06:20:45;;;;;;;2.17;1.45;;;;;;;;;;5027395;28;20026;-81
2021/07/16 06:23:12;;;;;;;0.65;0.65;;;;;;;;;;5024840;28;20025;-79
2021/07/16 06:25:38;;;;;;;2.97;0.80;;;;;;;;;;5054936;28;20033;-81
2021/07/16 06:28:04;;;;;;;1.40;0.82;;;;;;;;;;5024316;28;20033;-81
2021/07/16 06:30:30;;;;;;;1.95;1.10;;;;;;;;;;5023657;28;20033;-81
2021/07/16 06:32:56;;;;;;;1.15;0.73;;;;;;;;;;5005451;28;20026;-83
2021/07/16 06:35:22;;;;;;;2.28;1.23;;;;;;;;;;5023215;28;20053;-82
2021/07/16 06:37:48;;;;;;;1.10;0.98;;;;;;;;;;5022549;28;20078;-80
2021/07/16 06:40:15;;;;;;;3.63;1.63;;;;;;;;;;5028131;28;20140;-80
2021/07/16 06:42:41;;;;;;;1.40;1.30;;;;;;;;;;5023423;28;20030;-80
2021/07/16 06:45:07;;;;;;;1.23;0.90;;;;;;;;;;5028956;28;20160;-79
2021/07/16 06:47:33;;;;;;;1.38;1.10;;;;;;;;;;5010831;28;20502;-80
2021/07/16 06:49:59;;;;;;;5.43;1.35;;;;;;;;;;5028421;28;20090;-80
2021/07/16 06:52:25;;;;;;;1.33;0.60;;;;;;;;;;5036468;28;20044;-79
2021/07/16 06:54:51;;;;;;;0.90;0.90;;;;;;;;;;5042654;28;20478;-78
2021/07/16 06:57:18;;;;;;;2.90;1.00;;;;;;;;;;5024681;28;20620;-80
2021/07/16 06:59:44;;;;;;;3.10;1.10;;;;;;;;;;5007181;28;20371;-80
2021/07/16 07:02:10;;;;;;;1.15;0.95;;;;;;;;;;5006031;28;20030;-80
2021/07/16 07:04:36;;;;;;;0.63;0.63;;;;;;;;;;5023137;28;20030;-81
2021/07/16 07:07:02;;;;;;;3.95;1.88;;;;;;;;;;5003951;28;20467;-79
2021/07/16 07:09:28;;;;;;;2.53;1.65;;;;;;;;;;5022665;28;20030;-80
2021/07/16 07:11:54;;;;;;;2.47;1.08;;;;;;;;;;5004807;28;20108;-81
2021/07/16 07:14:20;;;;;;;1.05;0.95;;;;;;;;;;5023236;28;20080;-80
2021/07/16 07:16:46;;;;;;;3.70;1.40;;;;;;;;;;5022976;28;20052;-80
2021/07/16 07:19:12;;;;;;;1.38;0.40;;;;;;;;;;5005244;28;20331;-80
2021/07/16 07:21:38;;;;;;;0.40;0.40;;;;;;;;;;5015208;28;20032;-79
2021/07/16 07:24:05;;;;;;;0.90;0.90;;;;;;;;;;5041862;28;20034;-79
2021/07/16 07:26:32;;;;;;;1.10;1.00;;;;;;;;;;5026314;28;20045;-80
2021/07/16 07:28:58;;;;;;;2.92;1.40;;;;;;;;;;5018301;28;20023;-79
2021/07/16 07:31:25;;;;;;;1.85;1.00;;;;;;;;;;5002684;28;20475;-79
2021/07/16 07:33:51;;;;;;;0.80;0.80;;;;;;;;;;5003849;28;20073;-80
2021/07/16 07:36:17;;;;;;;0.63;0.63;;;;;;;;;;4985943;28;20057;-81
2021/07/16 07:38:44;;;;;;;0.60;0.60;;;;;;;;;;5003224;28;20489;-80
2021/07/16 07:41:10;;;;;;;1.42;0.90;;;;;;;;;;5021764;28;20022;-80
2021/07/16 07:43:36;;;;;;;0.52;0.52;;;;;;;;;;5023686;28;20036;-80
2021/07/16 07:46:03;;;;;;;0.40;0.40;;;;;;;;;;5005195;28;20034;-80
2021/07/16 07:48:29;;;;;;;0.43;0.43;;;;;;;;;;5022153;28;20380;-79
2021/07/16 07:50:55;;;;;;;1.98;0.60;;;;;;;;;;5002625;28;20125;-82
2021/07/16 07:53:21;;;;;;;1.60;1.00;;;;;;;;;;5024552;28;20022;-81
2021/07/16 07:55:47;;;;;;;0.90;0.82;;;;;;;;;;5026745;28;20025;-80
2021/07/16 07:58:13;;;;;;;0.50;0.50;;;;;;;;;;5020480;28;20030;-81
2021/07/16 08:00:39;;;;;;;0.50;0.50;;;;;;;;;;5023396;28;20030;-79
2021/07/16 08:03:05;;;;;;;3.35;0.82;;;;;;;;;;5004365;28;20022;-80
2021/07/16 08:05:31;;;;;;;0.75;0.47;;;;;;;;;;5020547;28;20038;-82
2021/07/16 08:07:57;;;;;;;0.85;0.80;;;;;;;;;;5020506;28;20077;-79
2021/07/16 08:10:23;;;;;;;1.98;0.73;;;;;;;;;;5022053;28;20568;-80
2021/07/16 08:12:50;;;;;;;2.78;0.90;;;;;;;;;;5020212;28;20040;-80
2021/07/16 08:15:16;;;;;;;0.65;0.65;;;;;;;;;;5003027;28;20060;-80
2021/07/16 08:17:42;;;;;;;0.60;0.60;;;;;;;;;;5022790;28;20026;-80
2021/07/16 08:20:09;;;;;;;0.93;0.90;;;;;;;;;;5005356;28;20022;-79
2021/07/16 08:22:36;;;;;;;1.33;0.65;;;;;;;;;;5004687;28;20033;-79
2021/07/16 08:25:03;;;;;;;0.82;0.70;;;;;;;;;;5004806;28;20113;-81
2021/07/16 08:27:29;;;;;;;0.52;0.52;;;;;;;;;;5004550;28;20030;-81
2021/07/16 08:29:55;;;;;;;0.60;0.60;;;;;;;;;;5024015;28;20040;-79
2021/07/16 08:32:21;;;;;;;0.50;0.50;;;;;;;;;;5003402;28;20125;-80
2021/07/16 08:34:47;;;;;;;0.95;0.57;;;;;;;;;;5021611;28;20423;-79
2021/07/16 08:37:13;;;;;;;0.50;0.50;;;;;;;;;;5004721;28;20022;-80
2021/07/16 08:39:42;;;;;;;0.73;0.73;;;;;;;;;;5022801;28;20081;-80
2021/07/16 08:42:08;;;;;;;0.73;0.70;;;;;;;;;;5006234;28;20754;-85
2021/07/16 08:44:37;;;;;;;0.98;0.60;;;;;;;;;;5016060;28;20054;-78
2021/07/16 08:47:03;;;;;;;1.52;0.90;;;;;;;;;;5025338;28;20034;-79
2021/07/16 08:49:30;;;;;;;0.50;0.50;;;;;;;;;;5024941;28;20026;-79
2021/07/16 08:51:57;;;;;;;1.30;1.20;;;;;;;;;;5030723;28;20025;-80
2021/07/16 08:54:23;;;;;;;0.50;0.50;;;;;;;;;;5029451;28;20038;-79
2021/07/16 08:56:50;;;;;;;0.70;0.70;;;;;;;;;;5003832;28;20022;-78
2021/07/16 08:59:16;;;;;;;1.25;0.70;;;;;;;;;;5024706;28;20049;-78
2021/07/16 09:01:44;;;;;;;0.60;0.60;;;;;;;;;;5024779;28;20057;-80
2021/07/16 09:04:10;;;;;;;1.27;0.75;;;;;;;;;;5022717;28;20028;-80
2021/07/16 09:06:55;;;;;;;0.60;0.60;;;;;;;;;;5022178;28;20037;-79
2021/07/16 09:09:23;;;;;;;1.95;0.80;;;;;;;;;;5020205;28;20038;-79
2021/07/16 09:11:50;;;;;;;0.77;0.73;;;;;;;;;;5020328;28;20041;-79
2021/07/16 09:14:19;;;;;;;0.90;0.90;;;;;;;;;;5020670;28;20018;-80
2021/07/16 09:16:56;;;;;;;0.70;0.70;;;;;;;;;;5020017;28;20020;-79
2021/07/16 09:19:29;;;;;;;1.05;0.82;;;;;;;;;;5002994;28;20037;-79
2021/07/16 09:22:21;;;;;;;0.60;0.60;;;;;;;;;;5021354;28;20045;-79
2021/07/16 09:24:47;;;;;;;2.08;0.80;;;;;;;;;;5016674;28;20069;-79
2021/07/16 09:27:32;;;;;;;0.98;0.98;;;;;;;;;;5020697;28;20053;-79
2021/07/16 09:30:15;;;;;;;0.80;0.80;;;;;;;;;;5018780;28;20076;-78
2021/07/16 09:32:45;;;;;;;0.55;0.55;;;;;;;;;;5018530;28;20033;-79
2021/07/16 09:35:17;;;;;;;0.80;0.80;;;;;;;;;;5019127;28;20025;-79
2021/07/16 09:37:52;;;;;;;0.60;0.60;;;;;;;;;;5020317;28;20032;-79
2021/07/16 09:40:26;;;;;;;0.75;0.75;;;;;;;;;;5020357;28;20068;-80
2021/07/16 09:43:18;;;;;;;3.30;1.30;;;;;;;;;;5021571;28;20093;-79
2021/07/16 09:45:46;;;;;;;1.85;1.17;;;;;;;;;;4999140;28;20041;-81
2021/07/16 09:48:18;;;;;;;0.85;0.85;;;;;;;;;;5005565;28;20037;-80
2021/07/16 09:50:44;;;;;;;0.77;0.60;;;;;;;;;;5007721;28;20022;-80
2021/07/16 09:53:17;;;;;;;1.42;0.77;;;;;;;;;;5033178;28;20021;-78
2021/07/16 09:55:43;;;;;;;1.00;0.90;;;;;;;;;;5013286;28;20150;-80
2021/07/16 09:58:26;;;;;;;1.52;1.00;;;;;;;;;;4987232;28;20026;-79
2021/07/16 10:00:53;;;;;;;0.70;0.70;;;;;;;;;;5010381;28;20034;-79
2021/07/16 10:03:19;;;;;;;1.60;1.15;;;;;;;;;;5026295;28;20443;-81
2021/07/16 10:05:46;;;;;;;3.70;0.93;;;;;;;;;;5023148;28;20450;-81
2021/07/16 10:10:41;;;;;;;0.80;0.80;;;;;;;;;;5017015;28;20042;-77
2021/07/16 10:13:10;;;;;;;2.15;1.30;;;;;;;;;;5023884;28;20358;-78
2021/07/16 10:15:37;;;;;;;2.53;1.48;;;;;;;;;;5013263;28;20023;-77
2021/07/16 10:18:06;;;;;;;1.05;0.95;;;;;;;;;;5003173;28;20101;-77
2021/07/16 10:20:35;;;;;;;2.10;0.60;;;;;;;;;;4989957;28;20061;-77
2021/07/16 10:23:01;;;;;;;0.93;0.93;;;;;;;;;;5030861;28;20006;-77
2021/07/16 10:25:27;;;;;;;1.00;1.00;;;;;;;;;;5013342;28;20033;-78
2021/07/16 10:27:53;;;;;;;1.38;1.00;;;;;;;;;;5005879;28;20085;-77
2021/07/16 10:30:20;;;;;;;0.63;0.63;;;;;;;;;;5001924;28;20482;-77
2021/07/16 10:32:46;;;;;;;2.10;0.75;;;;;;;;;;4999447;28;20050;-77
2021/07/16 10:35:18;;;;;;;1.73;1.00;;;;;;;;;;4999647;28;20029;-77
2021/07/16 10:37:45;;;;;;;1.75;1.10;;;;;;;;;;4998161;28;20405;-77
2021/07/16 10:40:31;;;;;;;1.17;1.08;;;;;;;;;;5001704;28;20027;-78
2021/07/16 10:42:57;;;;;;;0.63;0.63;;;;;;;;;;4995384;28;20078;-77
2021/07/16 10:45:40;;;;;;;0.60;0.60;;;;;;;;;;4997411;28;20026;-78
2021/07/16 10:48:09;;;;;;;1.08;0.68;;;;;;;;;;4978196;28;20031;-77
2021/07/16 10:50:37;;;;;;;0.57;0.57;;;;;;;;;;4977605;28;20530;-77
2021/07/16 10:53:03;;;;;;;1.45;0.85;;;;;;;;;;5001193;28;20029;-77
2021/07/16 10:55:30;;;;;;;0.85;0.82;;;;;;;;;;4993688;28;20032;-77
2021/07/16 10:57:56;;;;;;;0.80;0.80;;;;;;;;;;4962879;28;20027;-77
2021/07/16 11:00:37;;;;;;;0.80;0.65;;;;;;;;;;4981362;28;20023;-79
2021/07/16 11:03:09;;;;;;;1.10;0.93;;;;;;;;;;4980540;28;20051;-78
2021/07/16 11:05:35;;;;;;;0.95;0.75;;;;;;;;;;4982554;28;20037;-77
2021/07/16 11:08:02;;;;;;;1.17;0.77;;;;;;;;;;4980710;28;20035;-77
2021/07/16 11:10:46;;;;;;;0.93;0.93;;;;;;;;;;4981045;28;20030;-77
2021/07/16 11:13:31;;;;;;;0.52;0.52;;;;;;;;;;4991878;28;20033;-78
2021/07/16 11:15:58;;;;;;;1.15;1.00;;;;;;;;;;4982415;28;20057;-78
2021/07/16 11:18:28;;;;;;;0.95;0.80;;;;;;;;;;5000308;28;20022;-78
2021/07/16 11:20:54;;;;;;;2.22;0.70;;;;;;;;;;5002068;28;20027;-79
2021/07/16 11:23:21;;;;;;;1.73;1.10;;;;;;;;;;5011914;28;20026;-79
2021/07/16 11:25:47;;;;;;;1.05;1.00;;;;;;;;;;4991713;28;20030;-78
2021/07/16 11:28:13;;;;;;;0.85;0.82;;;;;;;;;;5016001;28;20030;-76
2021/07/16 11:30:43;;;;;;;1.00;1.00;;;;;;;;;;4993667;28;20034;-78
2021/07/16 11:33:10;;;;;;;1.05;1.02;;;;;;;;;;4988847;28;20065;-77
2021/07/16 11:35:37;;;;;;;0.75;0.75;;;;;;;;;;4987289;28;20011;-77
2021/07/16 11:38:07;;;;;;;1.40;1.10;;;;;;;;;;4988165;28;20027;-78
2021/07/16 11:40:34;;;;;;;0.57;0.57;;;;;;;;;;4989345;28;20426;-78
2021/07/16 11:43:01;;;;;;;0.70;0.70;;;;;;;;;;4987029;28;20380;-78
2021/07/16 11:45:27;;;;;;;0.50;0.50;;;;;;;;;;4989925;28;20030;-77
2021/07/16 11:47:55;;;;;;;0.68;0.68;;;;;;;;;;4972609;28;20037;-79
2021/07/16 11:50:21;;;;;;;0.65;0.63;;;;;;;;;;4989549;28;20094;-79
2021/07/16 11:52:48;;;;;;;1.80;1.23;;;;;;;;;;4998945;28;20030;-79
2021/07/16 11:55:16;;;;;;;1.92;1.75;;;;;;;;;;5001352;28;20558;-77
2021/07/16 11:57:51;;;;;;;1.13;1.00;;;;;;;;;;4996611;28;20026;-78
2021/07/16 12:00:18;;;;;;;0.82;0.82;;;;;;;;;;4995695;28;20031;-78
2021/07/16 12:02:44;;;;;;;0.50;0.50;;;;;;;;;;4980317;28;20084;-78
2021/07/16 12:05:12;;;;;;;1.00;0.50;;;;;;;;;;4997218;28;20033;-78
2021/07/16 12:07:39;;;;;;;0.50;0.50;;;;;;;;;;4999292;28;20029;-79
2021/07/16 12:10:23;;;;;;;0.50;0.50;;;;;;;;;;4998284;28;20095;-78
2021/07/16 12:12:49;;;;;;;1.17;0.70;;;;;;;;;;4997701;28;20027;-77
2021/07/16 12:15:18;;;;;;;0.85;0.85;;;;;;;;;;4998612;28;20030;-77
2021/07/16 12:18:01;;;;;;;0.63;0.63;;;;;;;;;;5000686;28;20027;-79
2021/07/16 12:20:34;;;;;;;0.82;0.75;;;;;;;;;;4998423;28;20031;-77
2021/07/16 12:23:01;;;;;;;0.70;0.70;;;;;;;;;;4997927;28;20085;-77
2021/07/16 12:25:28;;;;;;;0.93;0.70;;;;;;;;;;5016593;28;20030;-77
2021/07/16 12:28:08;;;;;;;1.70;0.85;;;;;;;;;;5016752;28;20026;-78
2021/07/16 12:30:34;;;;;;;1.95;0.73;;;;;;;;;;4979269;28;20523;-77
2021/07/16 12:33:01;;;;;;;0.93;0.90;;;;;;;;;;4975783;28;20114;-78
2021/07/16 12:35:28;;;;;;;0.98;0.98;;;;;;;;;;4994074;28;20030;-78
2021/07/16 12:38:01;;;;;;;0.98;0.70;;;;;;;;;;4998412;28;20038;-78
2021/07/16 12:40:27;;;;;;;0.70;0.70;;;;;;;;;;5005930;28;20557;-78
2021/07/16 12:43:02;;;;;;;1.13;0.88;;;;;;;;;;4997209;28;20089;-77
2021/07/16 12:45:39;;;;;;;1.20;0.77;;;;;;;;;;5012324;28;20041;-78
2021/07/16 12:48:09;;;;;;;2.47;0.73;;;;;;;;;;5012612;28;20061;-77
2021/07/16 12:50:35;;;;;;;0.82;0.80;;;;;;;;;;4997636;28;20033;-77
2021/07/16 12:53:01;;;;;;;0.98;0.88;;;;;;;;;;4979956;28;20026;-78
2021/07/16 12:55:30;;;;;;;1.20;0.95;;;;;;;;;;4994139;28;20045;-77
2021/07/16 12:58:00;;;;;;;1.67;0.77;;;;;;;;;;5013376;28;20032;-78
2021/07/16 13:00:26;;;;;;;0.98;0.40;;;;;;;;;;5015615;28;20015;-79
2021/07/16 13:03:12;;;;;;;0.80;0.70;;;;;;;;;;4997471;28;20030;-78
2021/07/16 13:05:38;;;;;;;0.80;0.70;;;;;;;;;;4997647;28;20459;-78
2021/07/16 13:08:20;;;;;;;0.80;0.57;;;;;;;;;;4998650;28;20031;-78
2021/07/16 13:10:54;;;;;;;0.65;0.60;;;;;;;;;;4993998;28;20534;-77
2021/07/16 13:13:21;;;;;;;0.47;0.47;;;;;;;;;;4997652;28;20030;-78
2021/07/16 13:16:06;;;;;;;0.75;0.68;;;;;;;;;;4991549;28;20035;-78
2021/07/16 13:18:32;;;;;;;1.48;0.60;;;;;;;;;;4991920;28;20037;-78
2021/07/16 13:20:58;;;;;;;0.65;0.60;;;;;;;;;;4989517;28;20035;-77
2021/07/16 13:23:24;;;;;;;2.30;0.93;;;;;;;;;;5010702;28;20042;-78
2021/07/16 13:25:54;;;;;;;0.60;0.60;;;;;;;;;;4987488;28;20026;-78
2021/07/16 13:28:20;;;;;;;0.55;0.52;;;;;;;;;;4994182;28;20480;-78
2021/07/16 13:30:46;;;;;;;0.98;0.80;;;;;;;;;;4988011;28;20090;-77
2021/07/16 13:33:12;;;;;;;0.40;0.40;;;;;;;;;;4981340;28;20113;-78
2021/07/16 13:35:38;;;;;;;0.45;0.40;;;;;;;;;;4986092;28;20081;-78
2021/07/16 13:38:04;;;;;;;0.73;0.47;;;;;;;;;;4982553;28;20023;-77
2021/07/16 13:40:30;;;;;;;0.70;0.70;;;;;;;;;;4984672;28;20081;-77
2021/07/16 13:42:56;;;;;;;0.40;0.40;;;;;;;;;;4986592;28;20058;-77
2021/07/16 13:45:22;;;;;;;0.32;0.30;;;;;;;;;;4986216;28;20022;-77
2021/07/16 13:47:49;;;;;;;0.60;0.50;;;;;;;;;;4988002;28;20093;-77
2021/07/16 13:50:15;;;;;;;2.05;0.70;;;;;;;;;;4989340;28;20113;-78
2021/07/16 13:52:41;;;;;;;1.65;0.55;;;;;;;;;;4975474;28;20053;-78
2021/07/16 13:55:07;;;;;;;0.52;0.52;;;;;;;;;;4999276;28;20022;-78
2021/07/16 13:57:34;;;;;;;0.50;0.50;;;;;;;;;;4969558;28;20038;-77
2021/07/16 14:00:06;;;;;;;0.95;0.50;;;;;;;;;;4989361;28;20023;-78
2021/07/16 14:02:32;;;;;;;0.47;0.43;;;;;;;;;;4987474;28;20022;-77
2021/07/16 14:04:58;;;;;;;2.50;0.93;;;;;;;;;;4990381;28;20025;-77
2021/07/16 14:07:24;;;;;;;0.60;0.60;;;;;;;;;;4993744;28;20420;-77
2021/07/16 14:09:51;;;;;;;0.60;0.60;;;;;;;;;;4997696;28;20507;-78
2021/07/16 14:12:18;;;;;;;0.50;0.50;;;;;;;;;;4997661;28;20517;-76
2021/07/16 14:14:47;;;;;;;0.55;0.55;;;;;;;;;;4998793;28;20034;-77
2021/07/16 14:17:13;;;;;;;0.52;0.47;;;;;;;;;;5002533;28;20014;-78
2021/07/16 14:19:39;;;;;;;0.43;0.43;;;;;;;;;;5002149;28;20034;-78
2021/07/16 14:22:05;;;;;;;0.47;0.47;;;;;;;;;;5006948;28;20049;-78
2021/07/16 14:24:31;;;;;;;0.50;0.50;;;;;;;;;;5014410;28;20145;-77
2021/07/16 14:26:58;;;;;;;1.10;0.40;;;;;;;;;;4999429;28;20030;-77
2021/07/16 14:29:24;;;;;;;0.32;0.32;;;;;;;;;;4999209;28;20054;-77
2021/07/16 14:31:50;;;;;;;0.40;0.40;;;;;;;;;;4999073;28;20030;-78
2021/07/16 14:34:17;;;;;;;0.30;0.30;;;;;;;;;;5002918;28;20054;-78
2021/07/16 14:36:43;;;;;;;0.90;0.43;;;;;;;;;;5002053;28;20028;-78
2021/07/16 14:39:09;;;;;;;1.85;0.40;;;;;;;;;;5003468;28;20053;-78
2021/07/16 14:41:35;;;;;;;0.68;0.68;;;;;;;;;;5001677;28;20033;-77
2021/07/16 14:44:01;;;;;;;1.50;0.60;;;;;;;;;;4997171;28;20025;-77
2021/07/16 14:46:30;;;;;;;0.32;0.32;;;;;;;;;;4998125;28;20113;-77
2021/07/16 14:48:56;;;;;;;0.50;0.50;;;;;;;;;;4997465;28;20352;-78